sensor_id;sensor_type;location;lat;lon;timestamp;pressure;altitude;pressure_sealevel;temperature;humidity
47104;BME280;32853;52.164;5.400;2023-04-02T00:01:23;101164.00;;;8.29;100.00
47104;BME280;32853;52.164;5.400;2023-04-02T00:06:42;101066.38;;;7.38;100.00
47104;BME280;32853;52.164;5.400;2023-04-02T00:11:49;101067.63;;;7.20;100.00
47104;BME280;32853;52.164;5.400;2023-04-02T00:14:30;101198.09;;;8.20;100.00
47104;BME280;32853;52.164;5.400;2023-04-02T00:17:00;101108.00;;;7.77;100.00
47104;BME280;32853;52.164;5.400;2023-04-02T00:19:30;101175.19;;;7.97;100.00
47104;BME280;32853;52.164;5.400;2023-04-02T00:22:01;101201.34;;;7.92;100.00
47104;BME280;32853;52.164;5.400;2023-04-02T00:24:29;100978.25;;;6.86;100.00
47104;BME280;32853;52.164;5.400;2023-04-02T00:26:56;101196.69;;;8.43;100.00
47104;BME280;32853;52.164;5.400;2023-04-02T00:29:21;101196.53;;;8.12;100.00
47104;BME280;32853;52.164;5.400;2023-04-02T00:31:49;101184.28;;;8.16;100.00
47104;BME280;32853;52.164;5.400;2023-04-02T00:34:30;101071.16;;;7.18;100.00
47104;BME280;32853;52.164;5.400;2023-04-02T00:37:00;101202.69;;;8.10;100.00
47104;BME280;32853;52.164;5.400;2023-04-02T00:39:29;101167.78;;;7.80;100.00
47104;BME280;32853;52.164;5.400;2023-04-02T00:41:56;101189.19;;;7.93;100.00
47104;BME280;32853;52.164;5.400;2023-04-02T00:44:35;101209.38;;;7.83;100.00
47104;BME280;32853;52.164;5.400;2023-04-02T00:47:34;101222.47;;;8.17;100.00
47104;BME280;32853;52.164;5.400;2023-04-02T00:52:42;101231.91;;;7.84;100.00
47104;BME280;32853;52.164;5.400;2023-04-02T00:57:59;101248.59;;;7.77;100.00
47104;BME280;32853;52.164;5.400;2023-04-02T01:00:35;101202.44;;;7.42;100.00
47104;BME280;32853;52.164;5.400;2023-04-02T01:03:28;101255.78;;;7.64;100.00
47104;BME280;32853;52.164;5.400;2023-04-02T01:06:04;101263.16;;;7.84;100.00
47104;BME280;32853;52.164;5.400;2023-04-02T01:08:52;101263.66;;;8.01;100.00
47104;BME280;32853;52.164;5.400;2023-04-02T01:22:35;101288.53;;;7.31;100.00
47104;BME280;32853;52.164;5.400;2023-04-02T01:25:03;101220.19;;;7.24;100.00
47104;BME280;32853;52.164;5.400;2023-04-02T01:27:44;101240.94;;;7.26;100.00
47104;BME280;32853;52.164;5.400;2023-04-02T01:30:36;101306.75;;;7.74;100.00
47104;BME280;32853;52.164;5.400;2023-04-02T01:33:02;101175.59;;;6.98;100.00
47104;BME280;32853;52.164;5.400;2023-04-02T01:35:34;101106.25;;;6.57;100.00
47104;BME280;32853;52.164;5.400;2023-04-02T01:38:17;101301.97;;;7.53;100.00
47104;BME280;32853;52.164;5.400;2023-04-02T01:45:57;101338.69;;;7.39;100.00
47104;BME280;32853;52.164;5.400;2023-04-02T01:48:25;101299.91;;;7.27;100.00
47104;BME280;32853;52.164;5.400;2023-04-02T01:50:55;101241.69;;;6.88;100.00
47104;BME280;32853;52.164;5.400;2023-04-02T01:53:30;101269.88;;;7.11;100.00
47104;BME280;32853;52.164;5.400;2023-04-02T01:55:58;101269.91;;;7.08;100.00
47104;BME280;32853;52.164;5.400;2023-04-02T01:58:28;101333.19;;;7.56;100.00
47104;BME280;32853;52.164;5.400;2023-04-02T02:01:27;101167.53;;;6.68;100.00
47104;BME280;32853;52.164;5.400;2023-04-02T02:03:56;101366.78;;;7.68;100.00
47104;BME280;32853;52.164;5.400;2023-04-02T02:06:21;101358.59;;;7.42;100.00
47104;BME280;32853;52.164;5.400;2023-04-02T02:08:54;101327.94;;;7.11;100.00
47104;BME280;32853;52.164;5.400;2023-04-02T02:11:25;101383.94;;;7.32;100.00
47104;BME280;32853;52.164;5.400;2023-04-02T02:13:57;101295.84;;;6.61;100.00
47104;BME280;32853;52.164;5.400;2023-04-02T02:16:24;101390.31;;;7.14;100.00
47104;BME280;32853;52.164;5.400;2023-04-02T02:18:56;101398.09;;;7.14;100.00
47104;BME280;32853;52.164;5.400;2023-04-02T02:21:42;101260.13;;;6.22;100.00
47104;BME280;32853;52.164;5.400;2023-04-02T02:24:28;101403.56;;;6.99;100.00
47104;BME280;32853;52.164;5.400;2023-04-02T02:29:34;101386.81;;;6.61;100.00
47104;BME280;32853;52.164;5.400;2023-04-02T02:32:02;101409.22;;;6.70;100.00
47104;BME280;32853;52.164;5.400;2023-04-02T02:34:34;101390.63;;;6.37;100.00
47104;BME280;32853;52.164;5.400;2023-04-02T02:37:11;101374.59;;;6.65;100.00
47104;BME280;32853;52.164;5.400;2023-04-02T02:39:43;101433.69;;;6.55;100.00
47104;BME280;32853;52.164;5.400;2023-04-02T02:42:28;101244.63;;;5.49;100.00
47104;BME280;32853;52.164;5.400;2023-04-02T02:44:56;101438.94;;;6.49;100.00
47104;BME280;32853;52.164;5.400;2023-04-02T02:47:28;101316.06;;;5.78;100.00
47104;BME280;32853;52.164;5.400;2023-04-02T02:50:22;101417.13;;;6.61;100.00
47104;BME280;32853;52.164;5.400;2023-04-02T02:52:53;101445.19;;;6.99;100.00
47104;BME280;32853;52.164;5.400;2023-04-02T02:55:36;101418.03;;;6.60;100.00
47104;BME280;32853;52.164;5.400;2023-04-02T02:58:09;101453.81;;;6.38;100.00
47104;BME280;32853;52.164;5.400;2023-04-02T03:00:36;101464.19;;;6.39;100.00
47104;BME280;32853;52.164;5.400;2023-04-02T03:03:08;101279.50;;;5.25;100.00
47104;BME280;32853;52.164;5.400;2023-04-02T03:05:38;101345.38;;;5.88;100.00
47104;BME280;32853;52.164;5.400;2023-04-02T03:08:16;101351.25;;;6.03;100.00
47104;BME280;32853;52.164;5.400;2023-04-02T03:10:53;101345.34;;;5.89;100.00
47104;BME280;32853;52.164;5.400;2023-04-02T03:13:26;101408.66;;;6.48;100.00
47104;BME280;32853;52.164;5.400;2023-04-02T03:16:37;101486.72;;;7.02;100.00
47104;BME280;32853;52.164;5.400;2023-04-02T03:23:55;101517.53;;;6.68;100.00
47104;BME280;32853;52.164;5.400;2023-04-02T03:26:32;101519.47;;;6.51;100.00
47104;BME280;32853;52.164;5.400;2023-04-02T03:29:22;101531.75;;;6.38;100.00
47104;BME280;32853;52.164;5.400;2023-04-02T03:31:56;101536.47;;;6.79;100.00
47104;BME280;32853;52.164;5.400;2023-04-02T03:34:33;101542.28;;;6.26;100.00
47104;BME280;32853;52.164;5.400;2023-04-02T03:37:27;101541.03;;;6.60;100.00
47104;BME280;32853;52.164;5.400;2023-04-02T03:40:08;101538.63;;;6.44;100.00
47104;BME280;32853;52.164;5.400;2023-04-02T03:42:39;101551.53;;;6.50;100.00
47104;BME280;32853;52.164;5.400;2023-04-02T03:45:31;101553.22;;;6.55;100.00
47104;BME280;32853;52.164;5.400;2023-04-02T03:48:12;101562.88;;;6.46;100.00
47104;BME280;32853;52.164;5.400;2023-04-02T03:53:10;101437.44;;;5.54;100.00
47104;BME280;32853;52.164;5.400;2023-04-02T03:55:38;101558.91;;;6.08;100.00
47104;BME280;32853;52.164;5.400;2023-04-02T04:01:07;101541.53;;;6.15;100.00
47104;BME280;32853;52.164;5.400;2023-04-02T04:03:47;101461.50;;;5.69;100.00
47104;BME280;32853;52.164;5.400;2023-04-02T04:06:32;101580.25;;;6.39;100.00
47104;BME280;32853;52.164;5.400;2023-04-02T04:09:08;101541.59;;;6.11;100.00
47104;BME280;32853;52.164;5.400;2023-04-02T04:11:37;101614.94;;;6.35;100.00
47104;BME280;32853;52.164;5.400;2023-04-02T04:14:17;101571.13;;;5.98;100.00
47104;BME280;32853;52.164;5.400;2023-04-02T04:17:02;101625.19;;;6.47;100.00
47104;BME280;32853;52.164;5.400;2023-04-02T04:19:53;101624.47;;;6.31;100.00
47104;BME280;32853;52.164;5.400;2023-04-02T04:22:32;101650.59;;;6.16;100.00
47104;BME280;32853;52.164;5.400;2023-04-02T04:24:59;101538.84;;;5.19;100.00
47104;BME280;32853;52.164;5.400;2023-04-02T04:27:33;101531.78;;;5.44;100.00
47104;BME280;32853;52.164;5.400;2023-04-02T04:33:20;101675.03;;;5.94;100.00
47104;BME280;32853;52.164;5.400;2023-04-02T04:35:59;101528.59;;;5.01;100.00
47104;BME280;32853;52.164;5.400;2023-04-02T04:38:34;101631.03;;;5.69;100.00
47104;BME280;32853;52.164;5.400;2023-04-02T04:41:13;101688.06;;;5.81;100.00
47104;BME280;32853;52.164;5.400;2023-04-02T04:44:00;101686.31;;;5.83;100.00
47104;BME280;32853;52.164;5.400;2023-04-02T04:50:06;101489.94;;;4.61;100.00
47104;BME280;32853;52.164;5.400;2023-04-02T04:52:35;101632.13;;;5.35;100.00
47104;BME280;32853;52.164;5.400;2023-04-02T04:55:01;101703.72;;;5.69;100.00
47104;BME280;32853;52.164;5.400;2023-04-02T04:57:40;101565.91;;;4.65;100.00
47104;BME280;32853;52.164;5.400;2023-04-02T05:00:17;101713.19;;;5.72;100.00
47104;BME280;32853;52.164;5.400;2023-04-02T05:03:16;101642.59;;;5.09;100.00
47104;BME280;32853;52.164;5.400;2023-04-02T05:05:47;101593.47;;;4.83;100.00
47104;BME280;32853;52.164;5.400;2023-04-02T05:08:18;101754.03;;;5.36;100.00
47104;BME280;32853;52.164;5.400;2023-04-02T05:10:51;101769.69;;;5.00;100.00
47104;BME280;32853;52.164;5.400;2023-04-02T05:13:49;101753.13;;;5.46;100.00
47104;BME280;32853;52.164;5.400;2023-04-02T05:16:32;101727.34;;;4.96;100.00
47104;BME280;32853;52.164;5.400;2023-04-02T05:19:15;101720.50;;;4.63;100.00
47104;BME280;32853;52.164;5.400;2023-04-02T05:21:59;101755.03;;;4.51;100.00
47104;BME280;32853;52.164;5.400;2023-04-02T05:33:18;101663.56;;;4.22;100.00
47104;BME280;32853;52.164;5.400;2023-04-02T05:35:47;101679.09;;;3.88;100.00
47104;BME280;32853;52.164;5.400;2023-04-02T05:38:26;101787.00;;;4.79;100.00
47104;BME280;32853;52.164;5.400;2023-04-02T05:41:20;101732.56;;;4.73;100.00
47104;BME280;32853;52.164;5.400;2023-04-02T05:43:48;101825.88;;;4.79;100.00
47104;BME280;32853;52.164;5.400;2023-04-02T05:46:25;101670.41;;;3.60;100.00
47104;BME280;32853;52.164;5.400;2023-04-02T05:48:56;101648.81;;;3.43;100.00
47104;BME280;32853;52.164;5.400;2023-04-02T05:51:43;101775.78;;;4.34;100.00
47104;BME280;32853;52.164;5.400;2023-04-02T05:54:25;101701.53;;;3.89;100.00
47104;BME280;32853;52.164;5.400;2023-04-02T05:56:56;101841.41;;;4.55;100.00
47104;BME280;32853;52.164;5.400;2023-04-02T05:59:30;101883.75;;;4.66;100.00
47104;BME280;32853;52.164;5.400;2023-04-02T06:07:19;101869.91;;;4.70;100.00
47104;BME280;32853;52.164;5.400;2023-04-02T06:10:04;101836.19;;;4.40;100.00
47104;BME280;32853;52.164;5.400;2023-04-02T06:15:26;101916.41;;;4.15;100.00
47104;BME280;32853;52.164;5.400;2023-04-02T06:18:04;101921.63;;;4.21;100.00
47104;BME280;32853;52.164;5.400;2023-04-02T06:20:31;101681.44;;;3.01;100.00
47104;BME280;32853;52.164;5.400;2023-04-02T06:23:11;101787.72;;;3.71;100.00
47104;BME280;32853;52.164;5.400;2023-04-02T06:25:45;101941.56;;;4.53;100.00
47104;BME280;32853;52.164;5.400;2023-04-02T06:28:16;101859.44;;;4.17;100.00
47104;BME280;32853;52.164;5.400;2023-04-02T06:30:42;101944.97;;;4.35;100.00
47104;BME280;32853;52.164;5.400;2023-04-02T06:33:11;101950.06;;;4.20;100.00
47104;BME280;32853;52.164;5.400;2023-04-02T06:35:39;101957.88;;;4.32;100.00
47104;BME280;32853;52.164;5.400;2023-04-02T06:38:06;101755.63;;;3.27;100.00
47104;BME280;32853;52.164;5.400;2023-04-02T06:40:52;101743.56;;;3.27;100.00
47104;BME280;32853;52.164;5.400;2023-04-02T06:43:32;101954.53;;;4.60;100.00
47104;BME280;32853;52.164;5.400;2023-04-02T06:46:14;101818.78;;;3.77;100.00
47104;BME280;32853;52.164;5.400;2023-04-02T06:48:42;101972.69;;;4.73;100.00
47104;BME280;32853;52.164;5.400;2023-04-02T06:51:12;101970.13;;;4.82;100.00
47104;BME280;32853;52.164;5.400;2023-04-02T06:53:48;101895.63;;;3.94;100.00
47104;BME280;32853;52.164;5.400;2023-04-02T06:58:46;101980.44;;;4.63;100.00
47104;BME280;32853;52.164;5.400;2023-04-02T07:01:17;101916.41;;;4.15;100.00
47104;BME280;32853;52.164;5.400;2023-04-02T07:03:44;101998.63;;;4.76;100.00
47104;BME280;32853;52.164;5.400;2023-04-02T07:06:19;102005.50;;;4.64;100.00
47104;BME280;32853;52.164;5.400;2023-04-02T07:08:45;101865.28;;;3.61;100.00
47104;BME280;32853;52.164;5.400;2023-04-02T07:13:21;102062.13;;;3.97;100.00
47104;BME280;32853;52.164;5.400;2023-04-02T07:15:49;101814.78;;;2.78;100.00
47104;BME280;32853;52.164;5.400;2023-04-02T07:18:35;102055.38;;;4.21;100.00
47104;BME280;32853;52.164;5.400;2023-04-02T07:21:05;102013.88;;;4.08;100.00
47104;BME280;32853;52.164;5.400;2023-04-02T07:23:31;102047.53;;;4.10;100.00
47104;BME280;32853;52.164;5.400;2023-04-02T07:25:56;102050.25;;;4.31;100.00
47104;BME280;32853;52.164;5.400;2023-04-02T07:28:23;102061.56;;;4.47;100.00
47104;BME280;32853;52.164;5.400;2023-04-02T07:30:49;101839.22;;;3.24;100.00
47104;BME280;32853;52.164;5.400;2023-04-02T07:33:17;101867.63;;;3.23;100.00
47104;BME280;32853;52.164;5.400;2023-04-02T07:35:43;101841.66;;;3.09;100.00
47104;BME280;32853;52.164;5.400;2023-04-02T07:38:09;102012.94;;;3.93;100.00
47104;BME280;32853;52.164;5.400;2023-04-02T07:40:35;102080.38;;;4.17;100.00
47104;BME280;32853;52.164;5.400;2023-04-02T07:43:00;102095.97;;;4.22;100.00
47104;BME280;32853;52.164;5.400;2023-04-02T07:45:26;101868.09;;;2.71;100.00
47104;BME280;32853;52.164;5.400;2023-04-02T07:47:52;101947.53;;;2.97;100.00
47104;BME280;32853;52.164;5.400;2023-04-02T07:50:17;101971.22;;;3.47;100.00
47104;BME280;32853;52.164;5.400;2023-04-02T07:52:43;102127.88;;;4.21;100.00
47104;BME280;32853;52.164;5.400;2023-04-02T07:55:09;102096.91;;;4.34;100.00
47104;BME280;32853;52.164;5.400;2023-04-02T07:57:46;101954.00;;;3.52;100.00
47104;BME280;32853;52.164;5.400;2023-04-02T08:00:24;102046.50;;;3.81;100.00
47104;BME280;32853;52.164;5.400;2023-04-02T08:02:51;101907.81;;;2.84;100.00
47104;BME280;32853;52.164;5.400;2023-04-02T08:05:17;101948.53;;;3.11;100.00
47104;BME280;32853;52.164;5.400;2023-04-02T08:07:43;101982.25;;;3.26;100.00
47104;BME280;32853;52.164;5.400;2023-04-02T08:10:10;101983.16;;;3.31;100.00
47104;BME280;32853;52.164;5.400;2023-04-02T08:12:36;102041.91;;;3.46;100.00
47104;BME280;32853;52.164;5.400;2023-04-02T08:15:02;102139.94;;;4.19;100.00
47104;BME280;32853;52.164;5.400;2023-04-02T08:17:32;102029.84;;;3.45;100.00
47104;BME280;32853;52.164;5.400;2023-04-02T08:19:58;102070.44;;;3.55;100.00
47104;BME280;32853;52.164;5.400;2023-04-02T08:22:28;101995.16;;;3.23;100.00
47104;BME280;32853;52.164;5.400;2023-04-02T08:27:46;102005.44;;;3.15;100.00
47104;BME280;32853;52.164;5.400;2023-04-02T08:30:14;102074.00;;;3.68;100.00
47104;BME280;32853;52.164;5.400;2023-04-02T08:32:40;102176.34;;;4.35;100.00
47104;BME280;32853;52.164;5.400;2023-04-02T08:35:14;102125.16;;;4.02;100.00
47104;BME280;32853;52.164;5.400;2023-04-02T08:37:41;102088.59;;;3.64;100.00
47104;BME280;32853;52.164;5.400;2023-04-02T08:40:07;102186.72;;;4.43;100.00
47104;BME280;32853;52.164;5.400;2023-04-02T08:43:15;102050.63;;;3.57;100.00
47104;BME280;32853;52.164;5.400;2023-04-02T08:46:22;102185.03;;;4.44;100.00
47104;BME280;32853;52.164;5.400;2023-04-02T08:49:02;102166.19;;;4.75;100.00
47104;BME280;32853;52.164;5.400;2023-04-02T08:51:34;102186.06;;;4.73;100.00
47104;BME280;32853;52.164;5.400;2023-04-02T08:54:03;102068.94;;;3.83;100.00
47104;BME280;32853;52.164;5.400;2023-04-02T08:56:35;101982.28;;;3.32;100.00
47104;BME280;32853;52.164;5.400;2023-04-02T09:05:01;102171.91;;;4.22;100.00
47104;BME280;32853;52.164;5.400;2023-04-02T09:07:29;102221.41;;;4.62;100.00
47104;BME280;32853;52.164;5.400;2023-04-02T09:09:57;102159.63;;;3.98;100.00
47104;BME280;32853;52.164;5.400;2023-04-02T09:12:28;102103.38;;;3.76;100.00
47104;BME280;32853;52.164;5.400;2023-04-02T09:17:34;102256.97;;;4.83;100.00
47104;BME280;32853;52.164;5.400;2023-04-02T09:20:16;102153.09;;;4.48;100.00
47104;BME280;32853;52.164;5.400;2023-04-02T09:22:44;102251.69;;;4.69;100.00
47104;BME280;32853;52.164;5.400;2023-04-02T09:25:30;102232.78;;;4.84;100.00
47104;BME280;32853;52.164;5.400;2023-04-02T09:28:00;102011.59;;;3.30;100.00
47104;BME280;32853;52.164;5.400;2023-04-02T09:33:07;102227.78;;;5.13;100.00
47104;BME280;32853;52.164;5.400;2023-04-02T09:38:26;102277.28;;;5.66;100.00
47104;BME280;32853;52.164;5.400;2023-04-02T09:41:01;102280.75;;;5.76;100.00
47104;BME280;32853;52.164;5.400;2023-04-02T09:43:31;102273.91;;;5.95;100.00
47104;BME280;32853;52.164;5.400;2023-04-02T09:45:59;102277.41;;;6.18;100.00
47104;BME280;32853;52.164;5.400;2023-04-02T09:48:28;102117.25;;;5.67;100.00
47104;BME280;32853;52.164;5.400;2023-04-02T09:51:14;102274.84;;;6.47;100.00
47104;BME280;32853;52.164;5.400;2023-04-02T09:53:45;102189.97;;;6.00;100.00
47104;BME280;32853;52.164;5.400;2023-04-02T09:56:22;102255.78;;;6.69;100.00
47104;BME280;32853;52.164;5.400;2023-04-02T10:07:02;102287.72;;;7.37;100.00
47104;BME280;32853;52.164;5.400;2023-04-02T10:09:33;102156.88;;;6.97;100.00
47104;BME280;32853;52.164;5.400;2023-04-02T10:12:02;102165.63;;;6.76;99.60
47104;BME280;32853;52.164;5.400;2023-04-02T10:14:33;102073.03;;;6.38;100.00
47104;BME280;32853;52.164;5.400;2023-04-02T10:17:20;102222.66;;;7.29;100.00
47104;BME280;32853;52.164;5.400;2023-04-02T10:20:07;102216.56;;;7.44;98.32
47104;BME280;32853;52.164;5.400;2023-04-02T10:22:45;102325.56;;;8.11;98.04
47104;BME280;32853;52.164;5.400;2023-04-02T10:25:15;102169.06;;;6.92;93.19
47104;BME280;32853;52.164;5.400;2023-04-02T10:27:48;102344.78;;;7.84;90.75
47104;BME280;32853;52.164;5.400;2023-04-02T10:30:27;102292.56;;;8.07;92.70
47104;BME280;32853;52.164;5.400;2023-04-02T10:32:54;102261.31;;;8.04;86.04
47104;BME280;32853;52.164;5.400;2023-04-02T10:38:38;102319.94;;;8.71;77.89
47104;BME280;32853;52.164;5.400;2023-04-02T10:46:33;102316.16;;;9.04;77.35
47104;BME280;32853;52.164;5.400;2023-04-02T10:49:22;102253.84;;;8.73;76.64
47104;BME280;32853;52.164;5.400;2023-04-02T10:51:59;102317.38;;;8.68;76.04
47104;BME280;32853;52.164;5.400;2023-04-02T10:54:46;102317.19;;;8.89;74.44
47104;BME280;32853;52.164;5.400;2023-04-02T10:59:55;102307.31;;;9.19;77.60
47104;BME280;32853;52.164;5.400;2023-04-02T11:02:24;102329.81;;;9.30;76.83
47104;BME280;32853;52.164;5.400;2023-04-02T11:05:02;102343.63;;;9.40;75.24
47104;BME280;32853;52.164;5.400;2023-04-02T11:07:31;102253.44;;;9.13;78.81
47104;BME280;32853;52.164;5.400;2023-04-02T11:10:05;102178.31;;;8.66;75.55
47104;BME280;32853;52.164;5.400;2023-04-02T11:12:41;102276.63;;;9.42;73.49
47104;BME280;32853;52.164;5.400;2023-04-02T11:15:15;102297.78;;;9.16;68.25
47104;BME280;32853;52.164;5.400;2023-04-02T11:17:43;102138.06;;;7.99;68.42
47104;BME280;32853;52.164;5.400;2023-04-02T11:23:12;102321.81;;;10.13;73.10
47104;BME280;32853;52.164;5.400;2023-04-02T11:25:40;102213.78;;;9.54;68.43
47104;BME280;32853;52.164;5.400;2023-04-02T11:28:24;102347.56;;;10.44;66.26
47104;BME280;32853;52.164;5.400;2023-04-02T11:30:51;102218.94;;;8.85;64.81
47104;BME280;32853;52.164;5.400;2023-04-02T11:33:38;102174.19;;;9.20;67.92
47104;BME280;32853;52.164;5.400;2023-04-02T11:39:09;102147.00;;;8.64;69.22
47104;BME280;32853;52.164;5.400;2023-04-02T11:41:59;102377.03;;;9.89;70.02
47104;BME280;32853;52.164;5.400;2023-04-02T11:47:50;102194.31;;;9.12;70.61
47104;BME280;32853;52.164;5.400;2023-04-02T11:50:40;102334.41;;;9.84;66.19
47104;BME280;32853;52.164;5.400;2023-04-02T11:55:44;102396.94;;;10.64;65.53
47104;BME280;32853;52.164;5.400;2023-04-02T11:58:46;102276.56;;;10.08;66.11
47104;BME280;32853;52.164;5.400;2023-04-02T12:09:42;102387.53;;;10.51;63.97
47104;BME280;32853;52.164;5.400;2023-04-02T12:12:27;102401.41;;;10.57;62.39
47104;BME280;32853;52.164;5.400;2023-04-02T12:14:55;102265.28;;;10.05;61.81
47104;BME280;32853;52.164;5.400;2023-04-02T12:17:28;102411.66;;;11.25;60.75
47104;BME280;32853;52.164;5.400;2023-04-02T12:19:58;102225.63;;;9.78;57.96
47104;BME280;32853;52.164;5.400;2023-04-02T12:22:27;102367.75;;;10.90;57.32
47104;BME280;32853;52.164;5.400;2023-04-02T12:24:58;102398.63;;;11.22;56.66
47104;BME280;32853;52.164;5.400;2023-04-02T12:27:26;102431.19;;;11.55;57.18
47104;BME280;32853;52.164;5.400;2023-04-02T12:30:20;102233.66;;;10.25;55.22
47104;BME280;32853;52.164;5.400;2023-04-02T12:32:46;102413.09;;;11.41;56.88
47104;BME280;32853;52.164;5.400;2023-04-02T12:41:19;102417.13;;;11.59;56.67
47104;BME280;32853;52.164;5.400;2023-04-02T12:44:05;102370.16;;;11.02;56.44
47104;BME280;32853;52.164;5.400;2023-04-02T12:46:33;102402.78;;;11.80;58.50
47104;BME280;32853;52.164;5.400;2023-04-02T12:49:38;102424.28;;;11.51;56.02
47104;BME280;32853;52.164;5.400;2023-04-02T12:52:10;102413.97;;;11.89;55.64
47104;BME280;32853;52.164;5.400;2023-04-02T12:54:46;102395.50;;;11.48;54.04
47104;BME280;32853;52.164;5.400;2023-04-02T13:00:25;102436.16;;;12.15;54.33
47104;BME280;32853;52.164;5.400;2023-04-02T13:03:13;102427.81;;;11.95;54.76
47104;BME280;32853;52.164;5.400;2023-04-02T13:05:47;102438.59;;;11.81;53.66
47104;BME280;32853;52.164;5.400;2023-04-02T13:08:41;102431.94;;;11.61;54.26
47104;BME280;32853;52.164;5.400;2023-04-02T13:11:07;102421.66;;;11.99;54.21
47104;BME280;32853;52.164;5.400;2023-04-02T13:13:40;102385.63;;;11.62;53.18
47104;BME280;32853;52.164;5.400;2023-04-02T13:18:40;102444.31;;;12.01;51.31
47104;BME280;32853;52.164;5.400;2023-04-02T13:21:26;102442.97;;;11.79;53.22
47104;BME280;32853;52.164;5.400;2023-04-02T13:23:53;102420.84;;;11.93;53.27
47104;BME280;32853;52.164;5.400;2023-04-02T13:26:23;102350.38;;;11.78;52.38
47104;BME280;32853;52.164;5.400;2023-04-02T13:31:24;102423.91;;;12.15;51.17
47104;BME280;32853;52.164;5.400;2023-04-02T13:33:58;102428.97;;;12.25;50.79
47104;BME280;32853;52.164;5.400;2023-04-02T13:36:23;102449.84;;;12.29;51.21
47104;BME280;32853;52.164;5.400;2023-04-02T13:38:54;102429.72;;;12.30;51.83
47104;BME280;32853;52.164;5.400;2023-04-02T13:41:26;102404.69;;;12.55;52.03
47104;BME280;32853;52.164;5.400;2023-04-02T13:44:05;102444.28;;;12.82;51.08
47104;BME280;32853;52.164;5.400;2023-04-02T13:46:47;102441.53;;;12.49;51.59
47104;BME280;32853;52.164;5.400;2023-04-02T13:49:13;102450.50;;;12.39;50.77
47104;BME280;32853;52.164;5.400;2023-04-02T13:51:48;102453.16;;;12.37;50.80
47104;BME280;32853;52.164;5.400;2023-04-02T13:56:45;102419.59;;;12.51;51.20
47104;BME280;32853;52.164;5.400;2023-04-02T13:59:11;102422.84;;;12.64;49.90
47104;BME280;32853;52.164;5.400;2023-04-02T14:01:37;102470.31;;;12.54;50.19
47104;BME280;32853;52.164;5.400;2023-04-02T14:04:04;102447.28;;;12.26;50.92
47104;BME280;32853;52.164;5.400;2023-04-02T14:12:43;102462.91;;;12.71;50.18
47104;BME280;32853;52.164;5.400;2023-04-02T14:14:57;102439.84;;;13.22;49.80
47104;BME280;32853;52.164;5.400;2023-04-02T14:20:40;102475.69;;;13.25;49.64
47104;BME280;32853;52.164;5.400;2023-04-02T14:26:24;102471.19;;;13.28;49.74
47104;BME280;32853;52.164;5.400;2023-04-02T14:29:30;102484.38;;;12.90;49.75
47104;BME280;32853;52.164;5.400;2023-04-02T14:32:08;102432.25;;;12.34;49.47
47104;BME280;32853;52.164;5.400;2023-04-02T14:34:54;102496.47;;;12.95;49.12
47104;BME280;32853;52.164;5.400;2023-04-02T14:37:35;102440.69;;;12.48;49.20
47104;BME280;32853;52.164;5.400;2023-04-02T14:43:18;102493.13;;;12.90;49.30
47104;BME280;32853;52.164;5.400;2023-04-02T14:46:05;102498.16;;;13.36;50.09
47104;BME280;32853;52.164;5.400;2023-04-02T14:51:46;102485.50;;;13.15;48.87
47104;BME280;32853;52.164;5.400;2023-04-02T14:54:33;102510.22;;;13.08;48.37
47104;BME280;32853;52.164;5.400;2023-04-02T14:59:57;102491.72;;;12.75;48.50
47104;BME280;32853;52.164;5.400;2023-04-02T15:02:49;102506.69;;;13.09;50.41
47104;BME280;32853;52.164;5.400;2023-04-02T15:05:21;102501.94;;;13.25;50.19
47104;BME280;32853;52.164;5.400;2023-04-02T15:07:52;102486.59;;;12.69;49.71
47104;BME280;32853;52.164;5.400;2023-04-02T15:10:47;102509.47;;;13.38;49.61
47104;BME280;32853;52.164;5.400;2023-04-02T15:13:20;102376.22;;;13.09;48.75
47104;BME280;32853;52.164;5.400;2023-04-02T15:16:23;102452.97;;;13.89;49.45
47104;BME280;32853;52.164;5.400;2023-04-02T15:18:55;102507.75;;;14.04;47.52
47104;BME280;32853;52.164;5.400;2023-04-02T15:30:13;102442.50;;;12.84;49.79
47104;BME280;32853;52.164;5.400;2023-04-02T15:32:42;102528.03;;;13.68;49.27
47104;BME280;32853;52.164;5.400;2023-04-02T15:38:24;102519.84;;;14.41;48.69
47104;BME280;32853;52.164;5.400;2023-04-02T15:41:11;102526.97;;;13.75;48.59
47104;BME280;32853;52.164;5.400;2023-04-02T15:48:58;102533.91;;;13.44;48.22
47104;BME280;32853;52.164;5.400;2023-04-02T15:52:05;102530.19;;;13.51;48.52
47104;BME280;32853;52.164;5.400;2023-04-02T15:54:43;102530.00;;;13.58;49.23
47104;BME280;32853;52.164;5.400;2023-04-02T16:00:17;102535.03;;;13.68;50.00
47104;BME280;32853;52.164;5.400;2023-04-02T16:02:55;102523.41;;;12.66;50.48
47104;BME280;32853;52.164;5.400;2023-04-02T16:11:17;102544.19;;;13.14;49.86
47104;BME280;32853;52.164;5.400;2023-04-02T16:13:42;102531.84;;;13.18;49.29
47104;BME280;32853;52.164;5.400;2023-04-02T16:16:29;102446.88;;;12.46;49.68
47104;BME280;32853;52.164;5.400;2023-04-02T16:19:10;102352.63;;;11.97;51.51
47104;BME280;32853;52.164;5.400;2023-04-02T16:21:41;102518.75;;;13.19;53.07
47104;BME280;32853;52.164;5.400;2023-04-02T16:24:14;102538.81;;;13.22;50.68
47104;BME280;32853;52.164;5.400;2023-04-02T16:26:48;102561.97;;;13.03;50.09
47104;BME280;32853;52.164;5.400;2023-04-02T16:29:36;102541.13;;;12.95;50.86
47104;BME280;32853;52.164;5.400;2023-04-02T16:37:58;102570.28;;;12.83;50.77
47104;BME280;32853;52.164;5.400;2023-04-02T16:52:21;102592.47;;;12.25;51.55
47104;BME280;32853;52.164;5.400;2023-04-02T16:55:19;102602.63;;;12.43;51.58
47104;BME280;32853;52.164;5.400;2023-04-02T16:58:06;102605.69;;;12.20;52.29